sensor_id;sensor_type;location;lat;lon;timestamp;pressure;altitude;pressure_sealevel;temperature
66403;BMP180;53212;52.112;5.144;2023-04-03T00:00:29;103036.80;;;3.70
66403;BMP180;53212;52.112;5.144;2023-04-03T00:02:55;103036.40;;;3.64
66403;BMP180;53212;52.112;5.144;2023-04-03T00:05:21;103033.80;;;3.60
66403;BMP180;53212;52.112;5.144;2023-04-03T00:07:49;103036.40;;;3.60
66403;BMP180;53212;52.112;5.144;2023-04-03T00:10:15;103037.20;;;3.60
66403;BMP180;53212;52.112;5.144;2023-04-03T00:12:41;103041.80;;;3.60
66403;BMP180;53212;52.112;5.144;2023-04-03T00:15:07;103040.80;;;3.50
66403;BMP180;53212;52.112;5.144;2023-04-03T00:17:32;103041.20;;;3.50
66403;BMP180;53212;52.112;5.144;2023-04-03T00:19:58;103044.20;;;3.50
66403;BMP180;53212;52.112;5.144;2023-04-03T00:22:24;103045.60;;;3.44
66403;BMP180;53212;52.112;5.144;2023-04-03T00:24:51;103046.60;;;3.40
66403;BMP180;53212;52.112;5.144;2023-04-03T00:27:17;103049.60;;;3.36
66403;BMP180;53212;52.112;5.144;2023-04-03T00:29:42;103056.40;;;3.34
66403;BMP180;53212;52.112;5.144;2023-04-03T00:32:08;103053.40;;;3.30
66403;BMP180;53212;52.112;5.144;2023-04-03T00:34:34;103050.20;;;3.30
66403;BMP180;53212;52.112;5.144;2023-04-03T00:36:59;103056.60;;;3.30
66403;BMP180;53212;52.112;5.144;2023-04-03T00:39:25;103049.20;;;3.30
66403;BMP180;53212;52.112;5.144;2023-04-03T00:41:50;103049.40;;;3.20
66403;BMP180;53212;52.112;5.144;2023-04-03T00:47:08;103050.00;;;3.14
66403;BMP180;53212;52.112;5.144;2023-04-03T00:49:37;103051.40;;;3.10
66403;BMP180;53212;52.112;5.144;2023-04-03T00:52:05;103054.20;;;3.10
66403;BMP180;53212;52.112;5.144;2023-04-03T00:54:35;103052.00;;;3.10
66403;BMP180;53212;52.112;5.144;2023-04-03T00:57:03;103051.00;;;3.02
66403;BMP180;53212;52.112;5.144;2023-04-03T00:59:38;103055.80;;;3.00
66403;BMP180;53212;52.112;5.144;2023-04-03T01:02:05;103057.80;;;3.00
66403;BMP180;53212;52.112;5.144;2023-04-03T01:04:37;103058.80;;;2.90
66403;BMP180;53212;52.112;5.144;2023-04-03T01:07:27;103062.60;;;2.90
66403;BMP180;53212;52.112;5.144;2023-04-03T01:09:59;103057.80;;;2.90
66403;BMP180;53212;52.112;5.144;2023-04-03T01:12:33;103056.20;;;2.90
66403;BMP180;53212;52.112;5.144;2023-04-03T01:25:31;103065.40;;;2.70
66403;BMP180;53212;52.112;5.144;2023-04-03T01:27:57;103066.60;;;2.70
66403;BMP180;53212;52.112;5.144;2023-04-03T01:30:30;103056.80;;;2.70
66403;BMP180;53212;52.112;5.144;2023-04-03T01:32:56;103059.20;;;2.60
66403;BMP180;53212;52.112;5.144;2023-04-03T01:35:22;103063.20;;;2.60
66403;BMP180;53212;52.112;5.144;2023-04-03T01:37:48;103061.40;;;2.60
66403;BMP180;53212;52.112;5.144;2023-04-03T01:40:13;103059.60;;;2.60
66403;BMP180;53212;52.112;5.144;2023-04-03T01:42:39;103063.20;;;2.52
66403;BMP180;53212;52.112;5.144;2023-04-03T01:45:05;103055.40;;;2.50
66403;BMP180;53212;52.112;5.144;2023-04-03T01:47:31;103054.00;;;2.44
66403;BMP180;53212;52.112;5.144;2023-04-03T01:49:57;103057.60;;;2.40
66403;BMP180;53212;52.112;5.144;2023-04-03T01:52:22;103056.00;;;2.40
66403;BMP180;53212;52.112;5.144;2023-04-03T01:54:48;103053.80;;;2.40
66403;BMP180;53212;52.112;5.144;2023-04-03T01:57:13;103054.00;;;2.40
66403;BMP180;53212;52.112;5.144;2023-04-03T01:59:40;103054.00;;;2.40
66403;BMP180;53212;52.112;5.144;2023-04-03T02:02:06;103056.00;;;2.40
66403;BMP180;53212;52.112;5.144;2023-04-03T02:04:32;103059.60;;;2.30
66403;BMP180;53212;52.112;5.144;2023-04-03T02:06:57;103062.80;;;2.30
66403;BMP180;53212;52.112;5.144;2023-04-03T02:09:23;103060.00;;;2.28
66403;BMP180;53212;52.112;5.144;2023-04-03T02:11:49;103066.20;;;2.20
66403;BMP180;53212;52.112;5.144;2023-04-03T02:14:14;103066.80;;;2.20
66403;BMP180;53212;52.112;5.144;2023-04-03T02:16:40;103071.60;;;2.20
66403;BMP180;53212;52.112;5.144;2023-04-03T02:19:07;103069.60;;;2.20
66403;BMP180;53212;52.112;5.144;2023-04-03T02:21:32;103068.60;;;2.20
66403;BMP180;53212;52.112;5.144;2023-04-03T02:23:58;103071.00;;;2.18
66403;BMP180;53212;52.112;5.144;2023-04-03T02:26:23;103066.60;;;2.10
66403;BMP180;53212;52.112;5.144;2023-04-03T02:28:49;103067.20;;;2.10
66403;BMP180;53212;52.112;5.144;2023-04-03T02:31:15;103069.80;;;2.06
66403;BMP180;53212;52.112;5.144;2023-04-03T02:33:40;103071.60;;;2.10
66403;BMP180;53212;52.112;5.144;2023-04-03T02:36:07;103070.40;;;2.00
66403;BMP180;53212;52.112;5.144;2023-04-03T02:38:33;103069.40;;;2.00
66403;BMP180;53212;52.112;5.144;2023-04-03T02:41:05;103074.00;;;2.00
66403;BMP180;53212;52.112;5.144;2023-04-03T02:43:31;103072.80;;;2.00
66403;BMP180;53212;52.112;5.144;2023-04-03T02:45:57;103077.00;;;1.90
66403;BMP180;53212;52.112;5.144;2023-04-03T02:48:24;103080.80;;;1.90
66403;BMP180;53212;52.112;5.144;2023-04-03T02:50:51;103085.00;;;1.88
66403;BMP180;53212;52.112;5.144;2023-04-03T02:53:17;103085.60;;;1.84
66403;BMP180;53212;52.112;5.144;2023-04-03T02:55:42;103082.80;;;1.82
66403;BMP180;53212;52.112;5.144;2023-04-03T02:58:08;103086.00;;;1.90
66403;BMP180;53212;52.112;5.144;2023-04-03T03:00:34;103085.20;;;1.90
66403;BMP180;53212;52.112;5.144;2023-04-03T03:03:00;103089.00;;;1.90
66403;BMP180;53212;52.112;5.144;2023-04-03T03:05:27;103094.80;;;1.90
66403;BMP180;53212;52.112;5.144;2023-04-03T03:07:54;103091.80;;;1.82
66403;BMP180;53212;52.112;5.144;2023-04-03T03:10:20;103097.60;;;1.88
66403;BMP180;53212;52.112;5.144;2023-04-03T03:12:45;103098.00;;;1.80
66403;BMP180;53212;52.112;5.144;2023-04-03T03:15:11;103100.60;;;1.80
66403;BMP180;53212;52.112;5.144;2023-04-03T03:17:37;103104.60;;;1.80
66403;BMP180;53212;52.112;5.144;2023-04-03T03:20:05;103105.80;;;1.80
66403;BMP180;53212;52.112;5.144;2023-04-03T03:22:31;103107.60;;;1.80
66403;BMP180;53212;52.112;5.144;2023-04-03T03:24:57;103109.60;;;1.80
66403;BMP180;53212;52.112;5.144;2023-04-03T03:27:23;103112.00;;;1.80
66403;BMP180;53212;52.112;5.144;2023-04-03T03:29:49;103112.60;;;1.80
66403;BMP180;53212;52.112;5.144;2023-04-03T03:32:15;103110.00;;;1.70
66403;BMP180;53212;52.112;5.144;2023-04-03T03:34:41;103113.20;;;1.70
66403;BMP180;53212;52.112;5.144;2023-04-03T03:37:06;103113.60;;;1.60
66403;BMP180;53212;52.112;5.144;2023-04-03T03:39:32;103115.20;;;1.60
66403;BMP180;53212;52.112;5.144;2023-04-03T03:41:58;103112.60;;;1.60
66403;BMP180;53212;52.112;5.144;2023-04-03T03:44:23;103107.20;;;1.60
66403;BMP180;53212;52.112;5.144;2023-04-03T03:46:49;103106.40;;;1.60
66403;BMP180;53212;52.112;5.144;2023-04-03T03:49:14;103110.00;;;1.58
66403;BMP180;53212;52.112;5.144;2023-04-03T03:51:40;103119.40;;;1.56
66403;BMP180;53212;52.112;5.144;2023-04-03T03:54:06;103116.60;;;1.52
66403;BMP180;53212;52.112;5.144;2023-04-03T03:56:33;103120.40;;;1.50
66403;BMP180;53212;52.112;5.144;2023-04-03T03:58:58;103121.00;;;1.50
66403;BMP180;53212;52.112;5.144;2023-04-03T04:01:24;103118.40;;;1.50
66403;BMP180;53212;52.112;5.144;2023-04-03T04:03:50;103115.60;;;1.50
66403;BMP180;53212;52.112;5.144;2023-04-03T04:06:16;103121.00;;;1.50
66403;BMP180;53212;52.112;5.144;2023-04-03T04:08:42;103121.20;;;1.50
66403;BMP180;53212;52.112;5.144;2023-04-03T04:11:08;103117.60;;;1.50
66403;BMP180;53212;52.112;5.144;2023-04-03T04:13:35;103121.00;;;1.50
66403;BMP180;53212;52.112;5.144;2023-04-03T04:16:00;103120.00;;;1.48
66403;BMP180;53212;52.112;5.144;2023-04-03T04:18:26;103128.80;;;1.46
66403;BMP180;53212;52.112;5.144;2023-04-03T04:20:51;103127.80;;;1.40
66403;BMP180;53212;52.112;5.144;2023-04-03T04:23:18;103125.20;;;1.40
66403;BMP180;53212;52.112;5.144;2023-04-03T04:25:47;103130.20;;;1.36
66403;BMP180;53212;52.112;5.144;2023-04-03T04:28:14;103128.00;;;1.30
66403;BMP180;53212;52.112;5.144;2023-04-03T04:30:39;103127.20;;;1.30
66403;BMP180;53212;52.112;5.144;2023-04-03T04:33:05;103129.40;;;1.30
66403;BMP180;53212;52.112;5.144;2023-04-03T04:35:30;103135.80;;;1.30
66403;BMP180;53212;52.112;5.144;2023-04-03T04:37:56;103132.20;;;1.36
66403;BMP180;53212;52.112;5.144;2023-04-03T04:40:21;103131.00;;;1.38
66403;BMP180;53212;52.112;5.144;2023-04-03T04:42:47;103129.00;;;1.40
66403;BMP180;53212;52.112;5.144;2023-04-03T04:45:13;103132.80;;;1.40
66403;BMP180;53212;52.112;5.144;2023-04-03T04:47:38;103139.20;;;1.40
66403;BMP180;53212;52.112;5.144;2023-04-03T04:50:05;103139.40;;;1.40
66403;BMP180;53212;52.112;5.144;2023-04-03T04:52:30;103144.00;;;1.40
66403;BMP180;53212;52.112;5.144;2023-04-03T04:54:56;103138.80;;;1.38
66403;BMP180;53212;52.112;5.144;2023-04-03T04:57:21;103142.60;;;1.30
66403;BMP180;53212;52.112;5.144;2023-04-03T04:59:47;103146.60;;;1.30
66403;BMP180;53212;52.112;5.144;2023-04-03T05:02:12;103144.40;;;1.30
66403;BMP180;53212;52.112;5.144;2023-04-03T05:04:38;103141.20;;;1.30
66403;BMP180;53212;52.112;5.144;2023-04-03T05:07:03;103142.40;;;1.30
66403;BMP180;53212;52.112;5.144;2023-04-03T05:09:29;103142.60;;;1.30
66403;BMP180;53212;52.112;5.144;2023-04-03T05:11:54;103141.20;;;1.30
66403;BMP180;53212;52.112;5.144;2023-04-03T05:14:21;103144.20;;;1.30
66403;BMP180;53212;52.112;5.144;2023-04-03T05:16:47;103139.00;;;1.30
66403;BMP180;53212;52.112;5.144;2023-04-03T05:19:13;103146.80;;;1.30
66403;BMP180;53212;52.112;5.144;2023-04-03T05:21:38;103152.20;;;1.30
66403;BMP180;53212;52.112;5.144;2023-04-03T05:24:05;103164.20;;;1.30
66403;BMP180;53212;52.112;5.144;2023-04-03T05:26:34;103168.60;;;1.30
66403;BMP180;53212;52.112;5.144;2023-04-03T05:29:00;103171.20;;;1.30
66403;BMP180;53212;52.112;5.144;2023-04-03T05:31:25;103171.60;;;1.30
66403;BMP180;53212;52.112;5.144;2023-04-03T05:33:55;103179.20;;;1.30
66403;BMP180;53212;52.112;5.144;2023-04-03T05:36:21;103180.20;;;1.30
66403;BMP180;53212;52.112;5.144;2023-04-03T05:38:47;103179.00;;;1.30
66403;BMP180;53212;52.112;5.144;2023-04-03T05:41:14;103172.20;;;1.34
66403;BMP180;53212;52.112;5.144;2023-04-03T05:43:40;103172.20;;;1.40
66403;BMP180;53212;52.112;5.144;2023-04-03T05:46:12;103173.80;;;1.40
66403;BMP180;53212;52.112;5.144;2023-04-03T05:48:38;103181.20;;;1.40
66403;BMP180;53212;52.112;5.144;2023-04-03T05:51:05;103178.80;;;1.42
66403;BMP180;53212;52.112;5.144;2023-04-03T05:53:35;103182.40;;;1.50
66403;BMP180;53212;52.112;5.144;2023-04-03T05:56:03;103184.40;;;1.50
66403;BMP180;53212;52.112;5.144;2023-04-03T05:58:29;103190.40;;;1.60
66403;BMP180;53212;52.112;5.144;2023-04-03T06:00:54;103194.80;;;1.68
66403;BMP180;53212;52.112;5.144;2023-04-03T06:03:20;103187.40;;;1.80
66403;BMP180;53212;52.112;5.144;2023-04-03T06:05:45;103188.60;;;1.90
66403;BMP180;53212;52.112;5.144;2023-04-03T06:08:11;103181.60;;;2.04
66403;BMP180;53212;52.112;5.144;2023-04-03T06:10:38;103185.40;;;2.20
66403;BMP180;53212;52.112;5.144;2023-04-03T06:13:04;103189.00;;;2.30
66403;BMP180;53212;52.112;5.144;2023-04-03T06:15:30;103186.40;;;2.48
66403;BMP180;53212;52.112;5.144;2023-04-03T06:17:55;103192.80;;;2.66
66403;BMP180;53212;52.112;5.144;2023-04-03T06:20:21;103192.40;;;2.84
66403;BMP180;53212;52.112;5.144;2023-04-03T06:22:47;103194.60;;;3.00
66403;BMP180;53212;52.112;5.144;2023-04-03T06:25:13;103190.80;;;3.20
66403;BMP180;53212;52.112;5.144;2023-04-03T06:27:39;103198.20;;;3.30
66403;BMP180;53212;52.112;5.144;2023-04-03T06:30:07;103204.60;;;3.30
66403;BMP180;53212;52.112;5.144;2023-04-03T06:32:33;103202.20;;;3.30
66403;BMP180;53212;52.112;5.144;2023-04-03T06:34:58;103206.80;;;3.30
66403;BMP180;53212;52.112;5.144;2023-04-03T06:37:24;103200.80;;;3.30
66403;BMP180;53212;52.112;5.144;2023-04-03T06:39:54;103201.40;;;3.20
66403;BMP180;53212;52.112;5.144;2023-04-03T06:42:20;103205.80;;;3.20
66403;BMP180;53212;52.112;5.144;2023-04-03T06:44:46;103208.60;;;3.20
66403;BMP180;53212;52.112;5.144;2023-04-03T06:47:16;103208.60;;;3.20
66403;BMP180;53212;52.112;5.144;2023-04-03T06:49:43;103207.40;;;3.20
66403;BMP180;53212;52.112;5.144;2023-04-03T06:52:09;103212.40;;;3.20
66403;BMP180;53212;52.112;5.144;2023-04-03T06:54:35;103211.20;;;3.26
66403;BMP180;53212;52.112;5.144;2023-04-03T06:57:01;103214.80;;;3.30
66403;BMP180;53212;52.112;5.144;2023-04-03T06:59:27;103219.80;;;3.34
66403;BMP180;53212;52.112;5.144;2023-04-03T07:01:52;103221.60;;;3.40
66403;BMP180;53212;52.112;5.144;2023-04-03T07:04:18;103224.80;;;3.50
66403;BMP180;53212;52.112;5.144;2023-04-03T07:06:46;103222.80;;;3.50
66403;BMP180;53212;52.112;5.144;2023-04-03T07:09:13;103226.20;;;3.52
66403;BMP180;53212;52.112;5.144;2023-04-03T07:11:39;103231.20;;;3.60
66403;BMP180;53212;52.112;5.144;2023-04-03T07:14:04;103233.60;;;3.60
66403;BMP180;53212;52.112;5.144;2023-04-03T07:16:31;103235.60;;;3.60
66403;BMP180;53212;52.112;5.144;2023-04-03T07:18:57;103238.80;;;3.70
66403;BMP180;53212;52.112;5.144;2023-04-03T07:21:24;103237.20;;;3.70
66403;BMP180;53212;52.112;5.144;2023-04-03T07:23:49;103238.40;;;3.80
66403;BMP180;53212;52.112;5.144;2023-04-03T07:26:15;103241.20;;;3.80
66403;BMP180;53212;52.112;5.144;2023-04-03T07:28:40;103238.00;;;3.84
66403;BMP180;53212;52.112;5.144;2023-04-03T07:31:11;103238.80;;;3.90
66403;BMP180;53212;52.112;5.144;2023-04-03T07:33:39;103238.80;;;3.98
66403;BMP180;53212;52.112;5.144;2023-04-03T07:36:06;103240.00;;;4.00
66403;BMP180;53212;52.112;5.144;2023-04-03T07:38:36;103241.20;;;4.10
66403;BMP180;53212;52.112;5.144;2023-04-03T07:41:03;103234.80;;;4.16
66403;BMP180;53212;52.112;5.144;2023-04-03T07:43:28;103234.40;;;4.20
66403;BMP180;53212;52.112;5.144;2023-04-03T07:45:54;103238.40;;;4.26
66403;BMP180;53212;52.112;5.144;2023-04-03T07:48:24;103239.60;;;4.30
66403;BMP180;53212;52.112;5.144;2023-04-03T07:50:51;103244.60;;;4.30
66403;BMP180;53212;52.112;5.144;2023-04-03T07:53:18;103242.00;;;4.40
66403;BMP180;53212;52.112;5.144;2023-04-03T07:55:47;103252.60;;;4.40
66403;BMP180;53212;52.112;5.144;2023-04-03T07:58:17;103244.00;;;4.50
66403;BMP180;53212;52.112;5.144;2023-04-03T08:00:43;103245.60;;;4.50
66403;BMP180;53212;52.112;5.144;2023-04-03T08:03:10;103244.40;;;4.60
66403;BMP180;53212;52.112;5.144;2023-04-03T08:05:38;103245.60;;;4.68
66403;BMP180;53212;52.112;5.144;2023-04-03T08:08:05;103250.60;;;4.70
66403;BMP180;53212;52.112;5.144;2023-04-03T08:10:31;103258.40;;;4.80
66403;BMP180;53212;52.112;5.144;2023-04-03T08:12:56;103259.60;;;4.80
66403;BMP180;53212;52.112;5.144;2023-04-03T08:15:22;103259.80;;;4.88
66403;BMP180;53212;52.112;5.144;2023-04-03T08:17:49;103261.40;;;4.90
66403;BMP180;53212;52.112;5.144;2023-04-03T08:20:14;103264.40;;;5.00
66403;BMP180;53212;52.112;5.144;2023-04-03T08:22:40;103262.20;;;5.00
66403;BMP180;53212;52.112;5.144;2023-04-03T08:25:07;103266.80;;;5.10
66403;BMP180;53212;52.112;5.144;2023-04-03T08:27:33;103269.00;;;5.12
66403;BMP180;53212;52.112;5.144;2023-04-03T08:29:58;103274.60;;;5.20
66403;BMP180;53212;52.112;5.144;2023-04-03T08:32:24;103278.60;;;5.30
66403;BMP180;53212;52.112;5.144;2023-04-03T08:34:50;103278.60;;;5.30
66403;BMP180;53212;52.112;5.144;2023-04-03T08:37:15;103278.60;;;5.40
66403;BMP180;53212;52.112;5.144;2023-04-03T08:39:44;103279.40;;;5.50
66403;BMP180;53212;52.112;5.144;2023-04-03T08:45:15;103278.20;;;5.50
66403;BMP180;53212;52.112;5.144;2023-04-03T08:48:12;103281.40;;;5.58
66403;BMP180;53212;52.112;5.144;2023-04-03T08:50:47;103282.80;;;5.60
66403;BMP180;53212;52.112;5.144;2023-04-03T08:53:28;103286.40;;;5.70
66403;BMP180;53212;52.112;5.144;2023-04-03T08:55:56;103277.00;;;5.70
66403;BMP180;53212;52.112;5.144;2023-04-03T08:58:30;103279.20;;;5.80
66403;BMP180;53212;52.112;5.144;2023-04-03T09:01:17;103277.00;;;5.90
66403;BMP180;53212;52.112;5.144;2023-04-03T09:03:42;103278.20;;;5.90
66403;BMP180;53212;52.112;5.144;2023-04-03T09:06:25;103282.60;;;6.00
66403;BMP180;53212;52.112;5.144;2023-04-03T09:12:04;103280.60;;;6.08
66403;BMP180;53212;52.112;5.144;2023-04-03T09:17:46;103280.80;;;6.20
66403;BMP180;53212;52.112;5.144;2023-04-03T09:22:54;103277.60;;;6.32
66403;BMP180;53212;52.112;5.144;2023-04-03T09:25:27;103280.60;;;6.40
66403;BMP180;53212;52.112;5.144;2023-04-03T09:27:55;103273.20;;;6.42
66403;BMP180;53212;52.112;5.144;2023-04-03T09:30:24;103273.00;;;6.50
66403;BMP180;53212;52.112;5.144;2023-04-03T09:32:53;103267.20;;;6.54
66403;BMP180;53212;52.112;5.144;2023-04-03T09:37:51;103260.80;;;6.60
66403;BMP180;53212;52.112;5.144;2023-04-03T09:43:01;103266.00;;;6.62
66403;BMP180;53212;52.112;5.144;2023-04-03T09:45:32;103265.60;;;6.70
66403;BMP180;53212;52.112;5.144;2023-04-03T09:50:54;103259.20;;;6.80
66403;BMP180;53212;52.112;5.144;2023-04-03T09:53:43;103256.00;;;6.90
66403;BMP180;53212;52.112;5.144;2023-04-03T09:56:29;103256.60;;;6.90
66403;BMP180;53212;52.112;5.144;2023-04-03T10:01:31;103251.40;;;7.10
66403;BMP180;53212;52.112;5.144;2023-04-03T10:04:18;103251.80;;;7.20
66403;BMP180;53212;52.112;5.144;2023-04-03T10:06:56;103242.20;;;7.20
66403;BMP180;53212;52.112;5.144;2023-04-03T10:09:23;103235.40;;;7.30
66403;BMP180;53212;52.112;5.144;2023-04-03T10:14:32;103233.40;;;7.30
66403;BMP180;53212;52.112;5.144;2023-04-03T10:25:20;103222.60;;;7.64
66403;BMP180;53212;52.112;5.144;2023-04-03T10:34:21;103210.20;;;7.92
66403;BMP180;53212;52.112;5.144;2023-04-03T10:37:19;103206.80;;;8.00
66403;BMP180;53212;52.112;5.144;2023-04-03T10:40:08;103209.20;;;8.00
66403;BMP180;53212;52.112;5.144;2023-04-03T10:45:53;103205.80;;;8.04
66403;BMP180;53212;52.112;5.144;2023-04-03T10:55:02;103198.00;;;8.20
66403;BMP180;53212;52.112;5.144;2023-04-03T10:57:30;103193.60;;;8.30
66403;BMP180;53212;52.112;5.144;2023-04-03T11:00:51;103193.00;;;8.30
66403;BMP180;53212;52.112;5.144;2023-04-03T11:02:59;103194.40;;;8.46
66403;BMP180;53212;52.112;5.144;2023-04-03T11:05:51;103190.00;;;8.50
66403;BMP180;53212;52.112;5.144;2023-04-03T11:08:27;103196.60;;;8.50
66403;BMP180;53212;52.112;5.144;2023-04-03T11:11:04;103200.20;;;8.60
66403;BMP180;53212;52.112;5.144;2023-04-03T11:13:50;103196.00;;;8.60
66403;BMP180;53212;52.112;5.144;2023-04-03T11:16:25;103201.20;;;8.70
66403;BMP180;53212;52.112;5.144;2023-04-03T11:18:59;103196.20;;;8.70
66403;BMP180;53212;52.112;5.144;2023-04-03T11:21:33;103191.80;;;8.70
66403;BMP180;53212;52.112;5.144;2023-04-03T11:24:03;103187.80;;;8.76
66403;BMP180;53212;52.112;5.144;2023-04-03T11:26:38;103186.60;;;8.80
66403;BMP180;53212;52.112;5.144;2023-04-03T11:29:14;103191.40;;;8.90
66403;BMP180;53212;52.112;5.144;2023-04-03T11:34:43;103185.80;;;9.10
66403;BMP180;53212;52.112;5.144;2023-04-03T11:40:06;103181.60;;;9.20
66403;BMP180;53212;52.112;5.144;2023-04-03T11:42:40;103183.00;;;9.30
66403;BMP180;53212;52.112;5.144;2023-04-03T11:50:47;103162.40;;;9.30
66403;BMP180;53212;52.112;5.144;2023-04-03T11:58:20;103170.00;;;9.38
66403;BMP180;53212;52.112;5.144;2023-04-03T12:01:07;103163.80;;;9.40
66403;BMP180;53212;52.112;5.144;2023-04-03T12:16:53;103143.40;;;9.40
66403;BMP180;53212;52.112;5.144;2023-04-03T12:19:39;103139.60;;;9.40
66403;BMP180;53212;52.112;5.144;2023-04-03T12:22:17;103134.80;;;9.40
66403;BMP180;53212;52.112;5.144;2023-04-03T12:24:48;103125.40;;;9.50
66403;BMP180;53212;52.112;5.144;2023-04-03T12:27:40;103120.00;;;9.60
66403;BMP180;53212;52.112;5.144;2023-04-03T12:30:26;103123.60;;;9.74
66403;BMP180;53212;52.112;5.144;2023-04-03T12:36:06;103112.60;;;10.18
66403;BMP180;53212;52.112;5.144;2023-04-03T12:38:41;103113.20;;;10.20
66403;BMP180;53212;52.112;5.144;2023-04-03T12:46:49;103105.60;;;10.10
66403;BMP180;53212;52.112;5.144;2023-04-03T12:49:41;103103.80;;;10.20
66403;BMP180;53212;52.112;5.144;2023-04-03T12:52:41;103108.20;;;10.20
66403;BMP180;53212;52.112;5.144;2023-04-03T12:55:19;103097.80;;;10.20
66403;BMP180;53212;52.112;5.144;2023-04-03T12:57:45;103095.60;;;10.28
66403;BMP180;53212;52.112;5.144;2023-04-03T13:00:34;103091.80;;;10.40
66403;BMP180;53212;52.112;5.144;2023-04-03T13:03:05;103088.00;;;10.50
66403;BMP180;53212;52.112;5.144;2023-04-03T13:05:32;103093.40;;;10.40
66403;BMP180;53212;52.112;5.144;2023-04-03T13:08:06;103085.40;;;10.40
66403;BMP180;53212;52.112;5.144;2023-04-03T13:10:57;103093.60;;;10.40
66403;BMP180;53212;52.112;5.144;2023-04-03T13:13:23;103090.20;;;10.30
66403;BMP180;53212;52.112;5.144;2023-04-03T13:15:50;103086.00;;;10.40
66403;BMP180;53212;52.112;5.144;2023-04-03T13:18:25;103074.40;;;10.40
66403;BMP180;53212;52.112;5.144;2023-04-03T13:20:51;103074.20;;;10.30
66403;BMP180;53212;52.112;5.144;2023-04-03T13:23:18;103082.60;;;10.30
66403;BMP180;53212;52.112;5.144;2023-04-03T13:25:46;103079.00;;;10.40
66403;BMP180;53212;52.112;5.144;2023-04-03T13:28:18;103074.20;;;10.50
66403;BMP180;53212;52.112;5.144;2023-04-03T13:31:13;103066.60;;;10.50
66403;BMP180;53212;52.112;5.144;2023-04-03T13:34:03;103075.40;;;10.70
66403;BMP180;53212;52.112;5.144;2023-04-03T13:36:42;103074.00;;;10.70
66403;BMP180;53212;52.112;5.144;2023-04-03T13:41:41;103076.20;;;10.66
66403;BMP180;53212;52.112;5.144;2023-04-03T13:47:20;103087.20;;;10.70
66403;BMP180;53212;52.112;5.144;2023-04-03T13:52:55;103072.60;;;10.70
66403;BMP180;53212;52.112;5.144;2023-04-03T13:55:35;103068.80;;;10.80
66403;BMP180;53212;52.112;5.144;2023-04-03T13:58:24;103067.20;;;10.90
66403;BMP180;53212;52.112;5.144;2023-04-03T14:01:07;103077.00;;;10.80
66403;BMP180;53212;52.112;5.144;2023-04-03T14:03:44;103068.40;;;10.80
66403;BMP180;53212;52.112;5.144;2023-04-03T14:06:14;103074.40;;;10.80
66403;BMP180;53212;52.112;5.144;2023-04-03T14:08:41;103070.40;;;10.80
66403;BMP180;53212;52.112;5.144;2023-04-03T14:11:21;103060.80;;;10.80
66403;BMP180;53212;52.112;5.144;2023-04-03T14:13:48;103054.00;;;10.80
66403;BMP180;53212;52.112;5.144;2023-04-03T14:16:18;103055.20;;;10.82
66403;BMP180;53212;52.112;5.144;2023-04-03T14:18:46;103052.20;;;10.90
66403;BMP180;53212;52.112;5.144;2023-04-03T14:21:14;103053.20;;;11.00
66403;BMP180;53212;52.112;5.144;2023-04-03T14:23:40;103049.40;;;10.98
66403;BMP180;53212;52.112;5.144;2023-04-03T14:26:23;103045.00;;;10.90
66403;BMP180;53212;52.112;5.144;2023-04-03T14:28:52;103041.80;;;10.90
66403;BMP180;53212;52.112;5.144;2023-04-03T14:31:19;103043.60;;;10.90
66403;BMP180;53212;52.112;5.144;2023-04-03T14:33:46;103042.20;;;11.00
66403;BMP180;53212;52.112;5.144;2023-04-03T14:36:20;103033.20;;;11.10
66403;BMP180;53212;52.112;5.144;2023-04-03T14:38:47;103031.60;;;11.20
66403;BMP180;53212;52.112;5.144;2023-04-03T14:41:15;103031.00;;;11.30
66403;BMP180;53212;52.112;5.144;2023-04-03T14:43:41;103031.00;;;11.30
66403;BMP180;53212;52.112;5.144;2023-04-03T14:46:17;103023.40;;;11.20
66403;BMP180;53212;52.112;5.144;2023-04-03T14:48:44;103023.60;;;11.30
66403;BMP180;53212;52.112;5.144;2023-04-03T14:51:15;103030.00;;;11.40
66403;BMP180;53212;52.112;5.144;2023-04-03T14:53:42;103026.80;;;11.40
66403;BMP180;53212;52.112;5.144;2023-04-03T14:56:21;103025.00;;;11.38
66403;BMP180;53212;52.112;5.144;2023-04-03T14:58:49;103015.00;;;11.38
66403;BMP180;53212;52.112;5.144;2023-04-03T15:01:17;103021.60;;;11.40
66403;BMP180;53212;52.112;5.144;2023-04-03T15:03:44;103024.00;;;11.40
66403;BMP180;53212;52.112;5.144;2023-04-03T15:06:14;103025.60;;;11.30
66403;BMP180;53212;52.112;5.144;2023-04-03T15:08:42;103025.40;;;11.30
66403;BMP180;53212;52.112;5.144;2023-04-03T15:11:11;103019.00;;;11.30
66403;BMP180;53212;52.112;5.144;2023-04-03T15:13:38;103016.20;;;11.30
66403;BMP180;53212;52.112;5.144;2023-04-03T15:16:05;103017.60;;;11.30
66403;BMP180;53212;52.112;5.144;2023-04-03T15:18:38;103017.80;;;11.20
66403;BMP180;53212;52.112;5.144;2023-04-03T15:21:04;103027.40;;;11.20
66403;BMP180;53212;52.112;5.144;2023-04-03T15:23:30;103027.40;;;11.20
66403;BMP180;53212;52.112;5.144;2023-04-03T15:25:56;103025.60;;;11.10
66403;BMP180;53212;52.112;5.144;2023-04-03T15:30:52;103022.20;;;11.20
66403;BMP180;53212;52.112;5.144;2023-04-03T15:33:18;103027.80;;;11.22
66403;BMP180;53212;52.112;5.144;2023-04-03T15:35:43;103019.80;;;11.20
66403;BMP180;53212;52.112;5.144;2023-04-03T15:38:09;103025.00;;;11.16
66403;BMP180;53212;52.112;5.144;2023-04-03T15:40:35;103024.80;;;11.20
66403;BMP180;53212;52.112;5.144;2023-04-03T15:43:01;103021.40;;;11.10
66403;BMP180;53212;52.112;5.144;2023-04-03T15:45:29;103017.00;;;11.20
66403;BMP180;53212;52.112;5.144;2023-04-03T15:47:56;103016.40;;;11.20
66403;BMP180;53212;52.112;5.144;2023-04-03T15:50:21;103022.00;;;11.20
66403;BMP180;53212;52.112;5.144;2023-04-03T15:52:50;103022.60;;;11.16
66403;BMP180;53212;52.112;5.144;2023-04-03T15:55:21;103015.80;;;11.10
66403;BMP180;53212;52.112;5.144;2023-04-03T15:57:47;103015.60;;;11.00
66403;BMP180;53212;52.112;5.144;2023-04-03T16:00:14;103020.20;;;10.98
66403;BMP180;53212;52.112;5.144;2023-04-03T16:02:40;103022.40;;;10.90
66403;BMP180;53212;52.112;5.144;2023-04-03T16:05:07;103023.60;;;10.80
66403;BMP180;53212;52.112;5.144;2023-04-03T16:07:33;103022.60;;;10.72
66403;BMP180;53212;52.112;5.144;2023-04-03T16:09:59;103020.00;;;10.70